Time;durP1;ratioP1;P1;durP2;ratioP2;P2;SDS_P1;SDS_P2;PMS_P1;PMS_P2;Temp;Humidity;BMP_temperature;BMP_pressure;BME280_temperature;BME280_humidity;BME280_pressure;Samples;Min_cycle;Max_cycle;Signal;HPM_P1;HPM_P2
2023/07/22 00:00:42;;;;;;;20.23;18.77;;;16.60;99.90;;;;;;5069711;28;20119;-58
2023/07/22 00:03:08;;;;;;;19.67;18.27;;;16.60;99.90;;;;;;5051148;28;20462;-58
2023/07/22 00:05:34;;;;;;;18.65;17.35;;;16.50;99.90;;;;;;5054978;28;20060;-58
2023/07/22 00:07:59;;;;;;;21.23;19.70;;;16.50;99.90;;;;;;5066091;28;20511;-58
2023/07/22 00:10:25;;;;;;;22.98;21.23;;;16.50;99.90;;;;;;5050468;28;20116;-58
2023/07/22 00:12:50;;;;;;;22.45;20.75;;;16.50;99.90;;;;;;5051396;28;20426;-58
2023/07/22 00:15:16;;;;;;;23.75;21.90;;;16.50;99.90;;;;;;5050564;28;20049;-58
2023/07/22 00:17:42;;;;;;;20.63;19.13;;;16.40;99.90;;;;;;5032570;28;20395;-58
2023/07/22 00:20:11;;;;;;;21.50;19.92;;;16.40;99.90;;;;;;5032466;28;20033;-58
2023/07/22 00:22:39;;;;;;;19.23;17.58;;;16.50;99.90;;;;;;5059493;28;20402;-58
2023/07/22 00:25:12;;;;;;;18.80;17.13;;;16.40;99.90;;;;;;5032071;28;20089;-58
2023/07/22 00:27:42;;;;;;;19.30;17.77;;;16.50;99.90;;;;;;5038569;28;20032;-58
2023/07/22 00:30:08;;;;;;;19.65;18.08;;;16.50;99.90;;;;;;5086354;28;20159;-58
2023/07/22 00:32:34;;;;;;;20.10;18.60;;;16.50;99.90;;;;;;5064920;28;20274;-58
2023/07/22 00:35:00;;;;;;;18.85;17.45;;;16.40;99.90;;;;;;5069831;28;20383;-58
2023/07/22 00:37:25;;;;;;;17.45;16.15;;;16.50;99.90;;;;;;5050083;28;20040;-58
2023/07/22 00:39:51;;;;;;;20.27;18.80;;;16.50;99.90;;;;;;5052280;28;20220;-58
2023/07/22 00:42:17;;;;;;;22.45;20.55;;;16.50;99.90;;;;;;5064593;28;20037;-58
2023/07/22 00:44:42;;;;;;;23.10;21.20;;;16.50;93.50;;;;;;5051295;28;20123;-58
2023/07/22 00:47:08;;;;;;;21.92;20.25;;;16.30;81.20;;;;;;5051497;28;20128;-58
2023/07/22 00:49:35;;;;;;;23.13;21.23;;;16.40;79.60;;;;;;5065304;28;20122;-58
2023/07/22 00:52:02;;;;;;;22.77;21.02;;;16.20;90.80;;;;;;5067504;28;20033;-58
2023/07/22 00:54:29;;;;;;;23.48;21.55;;;16.10;99.90;;;;;;5061120;28;20041;-58
2023/07/22 00:56:56;;;;;;;25.48;23.25;;;16.10;99.90;;;;;;5069433;28;20075;-59
2023/07/22 00:59:22;;;;;;;22.85;21.05;;;16.10;99.90;;;;;;5068627;28;20048;-58
2023/07/22 01:04:36;;;;;;;22.73;21.08;;;16.30;99.90;;;;;;5224899;23;20404;-60
2023/07/22 01:07:07;;;;;;;23.38;21.58;;;16.20;99.90;;;;;;4985801;28;20039;-59
2023/07/22 01:09:40;;;;;;;24.58;22.67;;;16.30;99.90;;;;;;4970516;28;20480;-60
2023/07/22 01:12:08;;;;;;;21.95;20.25;;;16.40;99.90;;;;;;4970304;28;20039;-60
2023/07/22 01:14:34;;;;;;;21.15;19.45;;;16.40;99.90;;;;;;4968232;28;20800;-60
2023/07/22 01:17:03;;;;;;;21.80;20.10;;;16.30;99.90;;;;;;4973248;28;20046;-60
2023/07/22 01:19:30;;;;;;;20.75;19.02;;;16.30;99.90;;;;;;4975155;28;20050;-60
2023/07/22 01:21:57;;;;;;;19.88;18.30;;;16.40;99.90;;;;;;4974317;28;20057;-60
2023/07/22 01:24:23;;;;;;;21.90;20.00;;;16.40;99.90;;;;;;4974275;28;20043;-60
2023/07/22 01:26:48;;;;;;;23.52;21.83;;;16.40;99.90;;;;;;4974853;28;20046;-60
2023/07/22 01:29:14;;;;;;;21.23;19.48;;;16.50;99.90;;;;;;4974457;28;20065;-60
2023/07/22 01:31:40;;;;;;;23.95;22.02;;;16.50;99.90;;;;;;4974749;28;20045;-60
2023/07/22 01:34:06;;;;;;;23.85;21.90;;;16.50;99.90;;;;;;4973721;28;20126;-60
2023/07/22 01:36:32;;;;;;;24.20;22.20;;;16.50;99.90;;;;;;4973352;28;20650;-60
2023/07/22 01:38:57;;;;;;;24.63;22.70;;;16.60;99.90;;;;;;4974842;28;20523;-60
2023/07/22 01:41:23;;;;;;;22.80;21.02;;;16.50;99.90;;;;;;4972856;28;20070;-60
2023/07/22 01:43:48;;;;;;;24.27;22.38;;;16.60;99.90;;;;;;4974403;28;20085;-60
2023/07/22 01:46:14;;;;;;;26.08;23.88;;;16.60;99.90;;;;;;4974672;28;20109;-59
2023/07/22 01:48:40;;;;;;;27.38;25.27;;;16.70;99.90;;;;;;4974127;28;20070;-60
2023/07/22 01:51:05;;;;;;;24.75;22.85;;;16.70;99.90;;;;;;4973709;28;20531;-60
2023/07/22 01:53:31;;;;;;;23.98;22.23;;;16.70;99.90;;;;;;4974648;28;20044;-60
2023/07/22 01:55:57;;;;;;;22.85;20.95;;;16.70;99.90;;;;;;4973651;28;20408;-60
2023/07/22 01:58:23;;;;;;;22.98;21.25;;;16.70;99.90;;;;;;4974448;28;20046;-60
2023/07/22 02:00:51;;;;;;;19.50;17.77;;;16.70;99.90;;;;;;4974871;28;20035;-59
2023/07/22 02:03:16;;;;;;;21.55;19.75;;;16.70;99.90;;;;;;4972870;28;20504;-59
2023/07/22 02:05:43;;;;;;;24.67;22.65;;;16.70;99.90;;;;;;4973795;28;20100;-60
2023/07/22 02:08:08;;;;;;;26.30;24.15;;;16.80;99.90;;;;;;4973796;28;20406;-60
2023/07/22 02:10:35;;;;;;;26.15;24.05;;;16.70;99.90;;;;;;4973900;28;20042;-60
2023/07/22 02:13:00;;;;;;;24.83;22.92;;;16.70;99.90;;;;;;4974715;28;20043;-60
2023/07/22 02:15:26;;;;;;;23.60;21.67;;;16.70;99.90;;;;;;4972142;28;20708;-60
2023/07/22 02:17:52;;;;;;;21.52;19.85;;;16.60;99.90;;;;;;4973564;28;20042;-60
2023/07/22 02:20:17;;;;;;;22.40;20.60;;;16.60;99.90;;;;;;4973689;28;20508;-60
2023/07/22 02:22:43;;;;;;;22.73;21.02;;;16.60;99.90;;;;;;4974064;28;20055;-60
2023/07/22 02:25:10;;;;;;;22.50;20.80;;;16.60;99.90;;;;;;4971630;28;20054;-60
2023/07/22 02:27:36;;;;;;;21.75;19.98;;;16.70;99.90;;;;;;4973482;28;20043;-60
2023/07/22 02:30:04;;;;;;;24.08;22.20;;;16.60;99.90;;;;;;4973957;28;20050;-60
2023/07/22 02:32:29;;;;;;;22.20;20.55;;;16.70;99.90;;;;;;4973225;28;20128;-60
2023/07/22 02:34:55;;;;;;;26.13;23.83;;;16.70;99.90;;;;;;4974177;28;20086;-60
2023/07/22 02:37:21;;;;;;;23.58;21.75;;;16.70;99.90;;;;;;4973364;28;20050;-60
2023/07/22 02:39:46;;;;;;;25.70;23.60;;;16.70;99.90;;;;;;4973012;28;20047;-60
2023/07/22 02:42:12;;;;;;;24.33;22.20;;;16.70;99.90;;;;;;4973743;28;20043;-59
2023/07/22 02:44:37;;;;;;;24.77;22.88;;;16.80;99.90;;;;;;4973281;28;20041;-60
2023/07/22 02:47:03;;;;;;;24.92;22.92;;;16.80;99.90;;;;;;4972679;28;20200;-60
2023/07/22 02:49:29;;;;;;;25.35;23.25;;;16.80;99.90;;;;;;4973699;28;20097;-60
2023/07/22 02:51:54;;;;;;;25.30;23.20;;;16.80;99.90;;;;;;4973338;28;20114;-60
2023/07/22 02:54:20;;;;;;;27.00;24.48;;;16.90;99.90;;;;;;4973288;28;20097;-60
2023/07/22 02:56:45;;;;;;;27.58;25.17;;;16.80;99.90;;;;;;4973348;28;20121;-60
2023/07/22 02:59:11;;;;;;;25.08;22.90;;;16.90;99.90;;;;;;4972884;28;20054;-60
2023/07/22 03:01:36;;;;;;;26.48;24.13;;;16.80;99.90;;;;;;4973250;28;20043;-60
2023/07/22 03:04:03;;;;;;;28.52;26.17;;;16.90;99.90;;;;;;4972494;28;20051;-60
2023/07/22 03:06:31;;;;;;;30.13;27.73;;;17.00;99.90;;;;;;4966596;28;20028;-60
2023/07/22 03:08:57;;;;;;;31.85;29.23;;;17.00;99.90;;;;;;4968671;28;20038;-60
2023/07/22 03:11:25;;;;;;;31.05;28.55;;;16.90;99.90;;;;;;4972706;28;20123;-60
2023/07/22 03:13:51;;;;;;;33.38;30.52;;;16.90;99.90;;;;;;4972893;28;20408;-60
2023/07/22 03:16:16;;;;;;;34.08;31.27;;;16.90;99.90;;;;;;4971603;28;20555;-60
2023/07/22 03:18:43;;;;;;;33.67;30.50;;;16.80;99.90;;;;;;4972371;28;20035;-60
2023/07/22 03:21:09;;;;;;;33.05;30.30;;;16.90;99.90;;;;;;4972660;28;20039;-60
2023/07/22 03:23:34;;;;;;;33.50;30.60;;;16.90;99.90;;;;;;4972806;28;20455;-60
2023/07/22 03:26:00;;;;;;;33.88;31.08;;;16.80;99.90;;;;;;4972925;28;20047;-60
2023/07/22 03:28:26;;;;;;;33.75;30.83;;;16.90;99.90;;;;;;4972548;28;20035;-60
2023/07/22 03:30:52;;;;;;;33.97;31.00;;;16.80;99.90;;;;;;4970341;28;20051;-59
2023/07/22 03:33:18;;;;;;;35.78;32.55;;;16.90;99.90;;;;;;4970555;28;20540;-59
2023/07/22 03:35:44;;;;;;;36.03;33.03;;;16.90;99.90;;;;;;4971715;28;20291;-59
2023/07/22 03:38:09;;;;;;;36.20;33.17;;;16.90;99.90;;;;;;4971571;28;20058;-60
2023/07/22 03:40:35;;;;;;;36.80;33.47;;;16.80;99.90;;;;;;4972045;28;20472;-60
2023/07/22 03:43:01;;;;;;;38.58;34.67;;;16.80;99.90;;;;;;4970021;28;20043;-60
2023/07/22 03:45:27;;;;;;;38.40;35.03;;;16.80;99.90;;;;;;4971688;28;20039;-60
2023/07/22 03:47:58;;;;;;;39.53;35.97;;;16.70;99.90;;;;;;4972597;28;20050;-60
2023/07/22 03:50:25;;;;;;;39.97;36.58;;;17.20;99.90;;;;;;4971853;28;20043;-59
2023/07/22 03:52:50;;;;;;;41.97;38.17;;;16.60;1.00;;;;;;4972602;28;20039;-60
2023/07/22 03:55:16;;;;;;;45.05;40.92;;;16.50;1.00;;;;;;4972103;28;20065;-60
2023/07/22 03:57:41;;;;;;;44.67;40.45;;;16.40;1.00;;;;;;4972155;28;20122;-59
2023/07/22 04:00:10;;;;;;;45.25;41.20;;;16.50;1.00;;;;;;4972004;28;20046;-60
2023/07/22 04:02:36;;;;;;;46.45;42.22;;;16.30;1.00;;;;;;4971731;28;20054;-60
2023/07/22 04:05:02;;;;;;;45.90;41.90;;;16.30;1.00;;;;;;4970483;28;20047;-60
2023/07/22 04:07:28;;;;;;;46.78;42.58;;;16.20;7.50;;;;;;4971891;28;20049;-60
2023/07/22 04:09:54;;;;;;;46.00;41.72;;;16.10;76.00;;;;;;4971040;28;20177;-59
2023/07/22 04:12:19;;;;;;;46.10;42.08;;;16.10;99.90;;;;;;4971618;28;20035;-60
2023/07/22 04:14:45;;;;;;;47.30;43.05;;;16.10;99.90;;;;;;4971551;28;20042;-59
2023/07/22 04:17:10;;;;;;;46.63;42.63;;;16.10;99.90;;;;;;4971255;28;20043;-60
2023/07/22 04:19:36;;;;;;;46.70;42.67;;;16.20;99.90;;;;;;4969481;28;20515;-59
2023/07/22 04:22:04;;;;;;;47.55;43.15;;;16.20;1.00;;;;;;4970194;28;20537;-60
2023/07/22 04:24:31;;;;;;;47.20;43.03;;;16.10;1.00;;;;;;4971683;28;20492;-60
2023/07/22 04:26:57;;;;;;;47.45;43.25;;;16.10;1.00;;;;;;4971326;28;20042;-60
2023/07/22 04:29:23;;;;;;;48.67;44.22;;;16.10;85.40;;;;;;4971535;28;20043;-60
2023/07/22 04:31:48;;;;;;;46.45;42.35;;;16.00;99.90;;;;;;4971260;28;20050;-59
2023/07/22 04:34:14;;;;;;;48.70;44.47;;;16.20;99.90;;;;;;4971239;28;20039;-59
2023/07/22 04:36:39;;;;;;;47.20;42.95;;;16.20;99.90;;;;;;4971106;28;20054;-59
2023/07/22 04:39:05;;;;;;;48.13;43.85;;;16.10;1.00;;;;;;4970920;28;20046;-59
2023/07/22 04:41:31;;;;;;;48.13;43.83;;;16.10;1.00;;;;;;4969363;28;20046;-59
2023/07/22 04:43:58;;;;;;;47.65;43.55;;;16.00;71.60;;;;;;4970150;28;20145;-59
2023/07/22 04:46:25;;;;;;;46.25;42.25;;;16.10;99.90;;;;;;4969866;28;20050;-59
2023/07/22 04:48:53;;;;;;;47.17;42.80;;;16.10;99.90;;;;;;4971443;28;20093;-60
2023/07/22 04:51:19;;;;;;;46.55;42.53;;;16.30;99.90;;;;;;4971534;28;20030;-60
2023/07/22 04:53:44;;;;;;;47.33;43.20;;;16.10;1.00;;;;;;4971262;28;20093;-60
2023/07/22 04:56:10;;;;;;;46.08;42.13;;;16.20;1.00;;;;;;4970939;28;20058;-60
2023/07/22 04:58:35;;;;;;;47.50;43.50;;;16.30;56.60;;;;;;4969377;28;20043;-60
2023/07/22 05:01:01;;;;;;;46.20;42.30;;;16.40;99.90;;;;;;4969799;28;20659;-60
2023/07/22 05:03:27;;;;;;;47.78;43.70;;;16.80;99.90;;;;;;4970474;28;20054;-60
2023/07/22 05:05:53;;;;;;;47.53;43.58;;;16.50;99.90;;;;;;4969446;28;20436;-59
2023/07/22 05:08:18;;;;;;;43.78;40.08;;;16.40;1.00;;;;;;4971658;28;20039;-60
2023/07/22 05:10:44;;;;;;;44.65;40.95;;;16.50;1.00;;;;;;4971127;28;20393;-59
2023/07/22 05:13:10;;;;;;;45.60;41.63;;;16.70;10.10;;;;;;4970130;28;20089;-59
2023/07/22 05:15:35;;;;;;;45.70;41.72;;;16.60;99.90;;;;;;4971270;28;20050;-59
2023/07/22 05:18:01;;;;;;;46.45;42.45;;;16.80;99.90;;;;;;4971512;28;20090;-59
2023/07/22 05:20:26;;;;;;;46.72;42.65;;;16.90;99.90;;;;;;4970817;28;20030;-59
2023/07/22 05:22:52;;;;;;;46.05;42.25;;;16.80;1.00;;;;;;4971478;28;20078;-60
2023/07/22 05:25:18;;;;;;;46.00;42.10;;;17.10;1.00;;;;;;4971061;28;20038;-59
2023/07/22 05:27:43;;;;;;;46.33;42.33;;;16.90;8.60;;;;;;4970593;28;20066;-60
2023/07/22 05:30:09;;;;;;;46.20;42.20;;;16.90;99.90;;;;;;4971144;28;20055;-60
2023/07/22 05:32:35;;;;;;;79.72;43.70;;;17.20;99.90;;;;;;4970815;28;20035;-59
2023/07/22 05:35:04;;;;;;;43.97;39.90;;;17.10;99.90;;;;;;4970411;28;20046;-60
2023/07/22 05:37:29;;;;;;;44.45;40.65;;;17.30;1.00;;;;;;4969320;28;20117;-60
2023/07/22 05:39:55;;;;;;;45.67;41.70;;;17.30;1.00;;;;;;4969508;28;20046;-60
2023/07/22 05:42:20;;;;;;;45.90;41.85;;;17.20;1.00;;;;;;4969449;28;20527;-60
2023/07/22 05:44:46;;;;;;;45.80;41.58;;;17.40;15.50;;;;;;4970697;28;20050;-59
2023/07/22 05:47:11;;;;;;;44.50;40.75;;;17.40;99.90;;;;;;4970538;28;20030;-59
2023/07/22 05:49:37;;;;;;;46.55;42.47;;;17.20;99.90;;;;;;4970286;28;20115;-59
2023/07/22 05:52:03;;;;;;;44.75;41.00;;;17.50;99.90;;;;;;4969984;28;20093;-59
2023/07/22 05:54:28;;;;;;;44.55;40.65;;;17.30;99.90;;;;;;4970574;28;20516;-59
2023/07/22 05:56:54;;;;;;;47.13;42.78;;;17.40;1.00;;;;;;4970026;28;20790;-59
2023/07/22 05:59:19;;;;;;;45.42;41.20;;;17.60;1.00;;;;;;4969730;28;20811;-59
2023/07/22 06:01:45;;;;;;;45.35;41.33;;;17.60;1.00;;;;;;4970913;28;20046;-60
2023/07/22 06:04:11;;;;;;;47.50;43.10;;;17.60;57.20;;;;;;4973391;28;20054;-59
2023/07/22 06:06:36;;;;;;;45.85;41.65;;;17.70;99.90;;;;;;4973214;28;20074;-60
2023/07/22 06:09:02;;;;;;;45.40;41.30;;;17.80;99.90;;;;;;4974134;28;20437;-59
2023/07/22 06:11:28;;;;;;;46.30;42.17;;;17.80;99.90;;;;;;4973363;28;20046;-60
2023/07/22 06:13:54;;;;;;;46.13;41.90;;;17.80;99.90;;;;;;4972550;28;20150;-60
2023/07/22 06:16:19;;;;;;;47.58;42.80;;;17.80;99.90;;;;;;4973758;28;20117;-60
2023/07/22 06:18:45;;;;;;;46.08;41.97;;;17.70;99.90;;;;;;4973925;28;20094;-59
2023/07/22 06:21:10;;;;;;;47.17;43.05;;;17.90;99.90;;;;;;4973625;28;20038;-60
2023/07/22 06:23:36;;;;;;;47.90;43.63;;;18.00;99.90;;;;;;4974124;28;20034;-59
2023/07/22 06:26:02;;;;;;;47.05;42.85;;;17.90;1.00;;;;;;4971950;28;20575;-59
2023/07/22 06:28:28;;;;;;;48.20;43.38;;;18.00;1.00;;;;;;4972731;28;20034;-59
2023/07/22 06:30:53;;;;;;;47.50;43.20;;;17.90;94.30;;;;;;4973667;28;20120;-59
2023/07/22 06:33:19;;;;;;;48.63;43.92;;;18.10;99.90;;;;;;4973565;28;20074;-59
2023/07/22 06:35:44;;;;;;;47.63;43.25;;;18.00;99.90;;;;;;4973000;28;20038;-59
2023/07/22 06:38:10;;;;;;;48.00;43.67;;;18.20;99.90;;;;;;4971149;28;20046;-59
2023/07/22 06:40:35;;;;;;;46.28;42.28;;;18.10;1.00;;;;;;4969348;28;20039;-59
2023/07/22 06:43:01;;;;;;;48.17;43.92;;;18.30;1.00;;;;;;4970476;28;20407;-59
2023/07/22 06:45:26;;;;;;;46.35;42.22;;;18.10;1.00;;;;;;4969639;28;20038;-59
2023/07/22 06:47:52;;;;;;;47.78;43.50;;;18.20;19.90;;;;;;4971774;28;20595;-59
2023/07/22 06:50:18;;;;;;;46.03;41.92;;;18.50;92.40;;;;;;4969931;28;20515;-60
2023/07/22 06:52:43;;;;;;;47.60;43.42;;;18.50;99.90;;;;;;4971757;28;20049;-60
2023/07/22 06:55:09;;;;;;;46.00;41.85;;;18.60;99.90;;;;;;4962995;28;20050;-60
2023/07/22 06:57:34;;;;;;;46.63;42.45;;;18.40;99.90;;;;;;4970343;28;20063;-59
2023/07/22 07:00:00;;;;;;;46.63;42.00;;;18.30;99.90;;;;;;4966826;28;20049;-59
2023/07/22 07:02:27;;;;;;;47.53;43.00;;;18.40;99.90;;;;;;4971608;28;20057;-59
2023/07/22 07:04:52;;;;;;;46.05;41.95;;;18.60;99.90;;;;;;4968552;28;20200;-59
2023/07/22 07:07:18;;;;;;;47.08;42.88;;;18.40;99.90;;;;;;4970889;28;20075;-59
2023/07/22 07:09:44;;;;;;;40.78;37.47;;;18.40;99.90;;;;;;4971155;28;20038;-60
2023/07/22 07:12:09;;;;;;;44.97;40.75;;;18.60;99.90;;;;;;4970205;28;20046;-59
2023/07/22 07:14:35;;;;;;;43.17;39.28;;;18.60;99.90;;;;;;4971904;28;20126;-59
2023/07/22 07:17:01;;;;;;;41.88;38.05;;;18.60;99.90;;;;;;4972294;28;20053;-59
2023/07/22 07:19:28;;;;;;;37.30;34.17;;;18.80;99.90;;;;;;4971944;28;20416;-59
2023/07/22 07:21:53;;;;;;;33.53;30.73;;;18.90;99.90;;;;;;4970612;28;20401;-60
2023/07/22 07:24:19;;;;;;;26.92;24.73;;;18.80;99.90;;;;;;4971716;28;20082;-60
2023/07/22 07:26:45;;;;;;;25.27;23.27;;;19.00;5.60;;;;;;4971714;28;20049;-59
2023/07/22 07:29:11;;;;;;;28.05;25.75;;;19.10;99.90;;;;;;4972557;28;20035;-59
2023/07/22 07:31:37;;;;;;;28.83;26.08;;;19.30;15.40;;;;;;4972268;28;20039;-59
2023/07/22 07:34:03;;;;;;;25.55;23.40;;;19.40;99.90;;;;;;4971923;28;20074;-60
2023/07/22 07:36:29;;;;;;;19.58;18.08;;;19.50;1.00;;;;;;4972009;28;20086;-60
2023/07/22 07:38:54;;;;;;;20.92;19.20;;;19.60;99.90;;;;;;4972184;28;20105;-60
2023/07/22 07:41:20;;;;;;;23.65;21.80;;;19.80;99.90;;;;;;4972129;28;20760;-60
2023/07/22 07:43:46;;;;;;;20.20;18.65;;;19.90;99.90;;;;;;4972368;28;20792;-60
2023/07/22 07:46:32;;;;;;;18.92;17.42;;;19.80;99.90;;;;;;4971824;28;20042;-60
2023/07/22 07:49:03;;;;;;;15.00;13.80;;;19.80;99.90;;;;;;4961284;28;20058;-60
2023/07/22 07:51:30;;;;;;;18.13;16.73;;;19.80;16.00;;;;;;4971829;28;20030;-60
2023/07/22 07:53:58;;;;;;;18.40;17.00;;;19.70;99.90;;;;;;4972036;28;20126;-60
2023/07/22 07:56:24;;;;;;;19.55;18.05;;;19.60;99.90;;;;;;4969815;28;20077;-59
2023/07/22 07:58:50;;;;;;;17.95;16.65;;;19.60;39.60;;;;;;4971461;28;20444;-59
2023/07/22 08:01:16;;;;;;;15.70;14.50;;;19.50;1.00;;;;;;4971464;28;20045;-59
2023/07/22 08:03:43;;;;;;;15.32;14.13;;;19.50;1.00;;;;;;4970934;28;20058;-60
2023/07/22 08:06:09;;;;;;;16.00;14.60;;;19.50;99.90;;;;;;4971513;28;20051;-59
2023/07/22 08:08:36;;;;;;;17.90;16.50;;;19.50;99.90;;;;;;4971597;28;20039;-59
2023/07/22 08:11:03;;;;;;;17.58;16.17;;;19.50;99.90;;;;;;4971330;28;20097;-59
2023/07/22 08:13:30;;;;;;;24.35;22.30;;;19.50;99.90;;;;;;4967339;28;20397;-60
2023/07/22 08:16:07;;;;;;;27.10;24.98;;;19.50;99.90;;;;;;4965805;28;20484;-59
2023/07/22 08:18:33;;;;;;;29.00;26.70;;;19.50;99.90;;;;;;4971823;28;20091;-60
2023/07/22 08:20:59;;;;;;;29.48;27.13;;;19.40;99.90;;;;;;4971302;28;20109;-59
2023/07/22 08:23:25;;;;;;;33.28;30.08;;;19.30;99.90;;;;;;4971219;28;20422;-59
2023/07/22 08:25:50;;;;;;;34.88;31.90;;;19.30;99.90;;;;;;4970925;28;20131;-60
2023/07/22 08:28:16;;;;;;;39.22;35.20;;;19.10;99.90;;;;;;4971210;28;20396;-60
2023/07/22 08:30:43;;;;;;;37.03;34.15;;;18.90;99.90;;;;;;4971161;28;20027;-60
2023/07/22 08:33:10;;;;;;;37.95;34.95;;;18.80;99.90;;;;;;4972224;28;20488;-60
2023/07/22 08:35:36;;;;;;;37.47;34.47;;;18.70;1.00;;;;;;4968858;28;20054;-60
2023/07/22 08:38:03;;;;;;;36.97;33.88;;;18.80;1.00;;;;;;4970741;28;20042;-60
2023/07/22 08:40:34;;;;;;;38.70;35.28;;;18.70;1.00;;;;;;4970632;28;20071;-60
2023/07/22 08:43:01;;;;;;;39.05;35.45;;;18.60;1.00;;;;;;4967398;28;20046;-60
2023/07/22 08:45:30;;;;;;;39.17;34.42;;;18.60;19.70;;;;;;4970615;28;20097;-60
2023/07/22 08:47:58;;;;;;;37.70;34.10;;;18.50;99.90;;;;;;4970724;28;20118;-59
2023/07/22 08:50:29;;;;;;;39.63;36.22;;;18.60;99.90;;;;;;4961769;28;20046;-59
2023/07/22 08:52:55;;;;;;;41.70;38.08;;;18.60;99.90;;;;;;4968979;28;20053;-59
2023/07/22 08:55:21;;;;;;;40.10;36.60;;;18.60;1.00;;;;;;4970290;28;20504;-60
2023/07/22 08:57:48;;;;;;;39.80;36.53;;;18.60;99.90;;;;;;4969962;28;20524;-59
2023/07/22 09:00:14;;;;;;;39.15;35.92;;;18.70;99.90;;;;;;4970479;28;20039;-59
2023/07/22 09:02:41;;;;;;;41.03;37.72;;;18.70;1.00;;;;;;4969117;28;20098;-59
2023/07/22 09:05:08;;;;;;;41.05;37.72;;;18.90;85.20;;;;;;4968857;28;20079;-59
2023/07/22 09:07:34;;;;;;;39.17;36.08;;;18.90;99.90;;;;;;4970347;28;20093;-59
2023/07/22 09:10:00;;;;;;;40.50;37.17;;;18.80;99.90;;;;;;4964583;28;20429;-59
2023/07/22 09:12:26;;;;;;;39.85;36.53;;;18.80;1.00;;;;;;4970632;28;20035;-60
2023/07/22 09:14:52;;;;;;;39.33;36.05;;;18.90;10.60;;;;;;4966615;28;20043;-59
2023/07/22 09:17:18;;;;;;;39.08;35.75;;;19.00;99.90;;;;;;4969889;28;20047;-59
2023/07/22 09:19:44;;;;;;;38.28;35.28;;;19.00;99.90;;;;;;4970806;28;20404;-59
2023/07/22 09:22:09;;;;;;;38.60;35.45;;;18.80;1.00;;;;;;4969343;28;20086;-60
2023/07/22 09:24:35;;;;;;;40.28;36.80;;;19.00;4.60;;;;;;4968712;28;20043;-59
2023/07/22 09:27:00;;;;;;;37.38;34.10;;;18.80;99.90;;;;;;4967820;28;20374;-59
2023/07/22 09:29:44;;;;;;;39.15;35.75;;;19.20;1.00;;;;;;4969437;28;20086;-59
2023/07/22 09:32:10;;;;;;;40.42;36.97;;;19.20;1.00;;;;;;4970983;28;20031;-59
2023/07/22 09:34:35;;;;;;;42.00;38.50;;;19.00;1.00;;;;;;4970547;28;20046;-59
2023/07/22 09:37:03;;;;;;;41.00;37.58;;;19.10;4.60;;;;;;4968767;28;20039;-59
2023/07/22 09:39:29;;;;;;;40.75;37.45;;;19.10;99.90;;;;;;4968775;28;20046;-59
2023/07/22 09:41:55;;;;;;;42.22;38.42;;;19.00;99.90;;;;;;4973655;28;20039;-59
2023/07/22 09:44:21;;;;;;;42.78;39.08;;;19.10;1.00;;;;;;4971695;28;20046;-59
2023/07/22 09:46:48;;;;;;;42.08;38.45;;;19.10;99.90;;;;;;4971901;28;20035;-59
2023/07/22 09:49:17;;;;;;;42.28;38.88;;;18.90;99.90;;;;;;4972695;28;20074;-59
2023/07/22 09:51:42;;;;;;;42.65;39.30;;;19.00;1.00;;;;;;4972882;28;20050;-61
2023/07/22 09:54:08;;;;;;;43.20;39.70;;;19.20;1.00;;;;;;4972865;28;20046;-59
2023/07/22 09:56:44;;;;;;;40.90;37.50;;;18.90;99.90;;;;;;4973694;28;20031;-59
2023/07/22 09:59:10;;;;;;;41.28;37.78;;;18.90;1.00;;;;;;4972865;28;20035;-59
2023/07/22 10:01:39;;;;;;;42.67;39.28;;;19.20;1.00;;;;;;4972912;28;20077;-59
2023/07/22 10:04:05;;;;;;;42.65;39.03;;;18.90;99.90;;;;;;4972621;28;20051;-59
2023/07/22 10:06:33;;;;;;;40.38;37.05;;;18.90;1.00;;;;;;4971103;28;20065;-59
2023/07/22 10:09:07;;;;;;;40.17;36.85;;;19.20;68.10;;;;;;4972549;28;20066;-59
2023/07/22 10:11:33;;;;;;;40.65;37.35;;;19.10;99.90;;;;;;4973843;28;20038;-59
2023/07/22 10:14:00;;;;;;;41.83;38.10;;;18.90;99.90;;;;;;4972859;28;20185;-59
2023/07/22 10:16:26;;;;;;;41.38;37.97;;;19.00;99.90;;;;;;4969117;28;20043;-60
2023/07/22 10:18:51;;;;;;;41.28;37.65;;;18.70;1.00;;;;;;4973632;28;20061;-60
2023/07/22 10:21:18;;;;;;;43.17;39.33;;;18.70;1.00;;;;;;4973705;28;20045;-60
2023/07/22 10:23:47;;;;;;;42.83;38.47;;;18.70;17.00;;;;;;4973309;28;20104;-60
2023/07/22 10:26:18;;;;;;;40.45;36.88;;;18.80;62.00;;;;;;4973314;28;20407;-60
2023/07/22 10:28:46;;;;;;;38.20;35.17;;;18.60;99.90;;;;;;4970662;28;20550;-60
2023/07/22 10:31:18;;;;;;;35.70;32.60;;;18.40;99.90;;;;;;4973660;28;20054;-60
2023/07/22 10:33:46;;;;;;;35.35;32.05;;;18.20;99.90;;;;;;4971823;28;20050;-61
2023/07/22 10:36:17;;;;;;;33.30;30.35;;;17.90;99.90;;;;;;4974326;28;20543;-61
2023/07/22 10:38:43;;;;;;;33.85;31.05;;;17.90;99.90;;;;;;4973497;28;20082;-60
2023/07/22 10:41:19;;;;;;;32.10;29.40;;;17.80;99.90;;;;;;4973432;28;20030;-60
2023/07/22 10:43:59;;;;;;;31.85;29.15;;;18.20;99.90;;;;;;4973116;28;20496;-60
2023/07/22 10:46:35;;;;;;;32.25;29.38;;;18.70;99.90;;;;;;4973369;28;20560;-60
2023/07/22 10:49:12;;;;;;;31.40;28.67;;;18.20;99.90;;;;;;4971735;28;20046;-60
2023/07/22 10:51:38;;;;;;;32.85;27.63;;;18.20;99.90;;;;;;4973751;28;20416;-60
2023/07/22 10:54:11;;;;;;;32.42;29.70;;;18.30;99.90;;;;;;4969429;28;20030;-60
2023/07/22 10:56:37;;;;;;;32.47;29.85;;;18.30;99.90;;;;;;4973362;28;20046;-60
2023/07/22 10:59:03;;;;;;;32.45;29.65;;;17.80;99.90;;;;;;4972923;28;20046;-60
2023/07/22 11:01:32;;;;;;;31.75;28.98;;;18.50;99.90;;;;;;4972727;28;20047;-61
2023/07/22 11:04:31;;;;;;;32.50;29.65;;;18.00;99.90;;;;;;4967708;28;20046;-60
2023/07/22 11:07:04;;;;;;;32.88;30.05;;;18.60;99.90;;;;;;4972414;28;20054;-61
2023/07/22 11:09:33;;;;;;;32.33;29.73;;;18.70;99.90;;;;;;4968890;28;20038;-60
2023/07/22 11:12:20;;;;;;;33.80;30.83;;;18.10;99.90;;;;;;4971233;28;20468;-61
2023/07/22 11:14:50;;;;;;;32.95;30.15;;;18.90;99.90;;;;;;4972104;28;20046;-60
2023/07/22 11:17:18;;;;;;;34.40;31.25;;;18.40;99.90;;;;;;4971432;28;20093;-60
2023/07/22 11:19:45;;;;;;;34.47;31.52;;;18.50;99.90;;;;;;4972599;28;20416;-60
2023/07/22 11:22:10;;;;;;;34.08;31.13;;;19.10;99.90;;;;;;4970437;28;20489;-61
2023/07/22 11:24:37;;;;;;;35.33;32.28;;;19.20;99.90;;;;;;4969852;28;20132;-60
2023/07/22 11:27:04;;;;;;;36.33;33.05;;;18.70;99.90;;;;;;4971483;28;20031;-61
2023/07/22 11:29:31;;;;;;;36.60;33.20;;;18.80;99.90;;;;;;4972118;28;20373;-60
2023/07/22 11:31:57;;;;;;;37.58;34.40;;;19.00;99.90;;;;;;4971668;28;20045;-61
2023/07/22 11:34:24;;;;;;;37.75;34.35;;;19.60;99.90;;;;;;4971051;28;20043;-61
2023/07/22 11:36:52;;;;;;;36.20;33.00;;;19.40;99.90;;;;;;4968075;28;20505;-61
2023/07/22 11:39:20;;;;;;;37.72;34.30;;;19.20;99.90;;;;;;4972519;28;20043;-61
2023/07/22 11:41:47;;;;;;;38.92;35.45;;;19.90;99.90;;;;;;4971945;28;20042;-60
2023/07/22 11:44:15;;;;;;;39.75;36.10;;;19.50;99.90;;;;;;4969328;28;20075;-61
2023/07/22 11:47:00;;;;;;;40.15;36.55;;;19.60;99.90;;;;;;4968414;28;20034;-60
2023/07/22 11:49:33;;;;;;;39.90;36.50;;;19.80;99.90;;;;;;4964817;28;20046;-61
2023/07/22 11:52:04;;;;;;;41.03;37.22;;;19.30;99.90;;;;;;4969589;28;20043;-61
2023/07/22 11:54:33;;;;;;;40.13;36.70;;;19.60;99.90;;;;;;4971002;28;20065;-60
2023/07/22 11:57:29;;;;;;;39.90;36.22;;;19.10;99.90;;;;;;4971563;28;20410;-61
2023/07/22 11:59:56;;;;;;;38.47;34.67;;;19.00;99.90;;;;;;4968863;28;20547;-61
2023/07/22 12:02:24;;;;;;;33.88;30.70;;;18.90;99.90;;;;;;4971880;28;20042;-61
2023/07/22 12:04:57;;;;;;;32.92;29.80;;;18.80;99.90;;;;;;4971666;28;20484;-61
2023/07/22 12:07:45;;;;;;;34.55;31.33;;;18.80;99.90;;;;;;4970839;28;20031;-61
2023/07/22 12:10:11;;;;;;;32.65;29.70;;;18.90;99.90;;;;;;4956841;28;20039;-61
2023/07/22 12:12:48;;;;;;;33.83;30.83;;;18.90;99.90;;;;;;4968013;28;20113;-61
2023/07/22 12:15:15;;;;;;;34.33;31.23;;;19.00;99.90;;;;;;4963961;28;20047;-61
2023/07/22 12:17:54;;;;;;;36.00;32.80;;;19.40;99.90;;;;;;4970562;28;20150;-61
2023/07/22 12:20:30;;;;;;;35.83;32.60;;;19.20;99.90;;;;;;4970350;28;20507;-61
2023/07/22 12:22:57;;;;;;;37.65;34.20;;;19.10;99.90;;;;;;4969336;28;20062;-61
2023/07/22 12:25:23;;;;;;;37.15;33.50;;;19.10;99.90;;;;;;4970426;28;20408;-61
2023/07/22 12:27:49;;;;;;;37.85;34.17;;;19.10;99.90;;;;;;4970116;28;20038;-61
2023/07/22 12:30:15;;;;;;;38.00;34.65;;;19.20;99.90;;;;;;4971515;28;20050;-61